Time;durP1;ratioP1;P1;durP2;ratioP2;P2;SDS_P1;SDS_P2;PMS_P1;PMS_P2;Temp;Humidity;BMP_temperature;BMP_pressure;BME280_temperature;BME280_humidity;BME280_pressure;Samples;Min_cycle;Max_cycle;Signal;HPM_P1;HPM_P2
2024/02/27 00:02:22;;;;;;;2.83;1.90;;;9.90;71.10;;;11.68;52.58;96648.94;5014167;28;20045;-58
2024/02/27 00:04:50;;;;;;;3.37;2.10;;;9.90;71.10;;;11.68;52.53;96640.94;5031964;28;20426;-59
2024/02/27 00:07:18;;;;;;;2.57;1.50;;;9.90;70.20;;;11.65;52.55;96649.31;5013688;28;20052;-59
2024/02/27 00:09:47;;;;;;;3.83;2.33;;;9.90;71.00;;;11.60;52.80;96647.22;5013887;28;20046;-59
2024/02/27 00:12:15;;;;;;;3.10;1.93;;;9.90;70.60;;;11.58;53.05;96645.75;5032156;28;20048;-59
2024/02/27 00:14:43;;;;;;;2.67;1.90;;;9.90;70.80;;;11.55;53.16;96646.97;5013676;28;20041;-59
2024/02/27 00:17:11;;;;;;;1.50;1.40;;;9.80;70.60;;;11.51;53.28;96643.03;5031599;28;20418;-59
2024/02/27 00:19:38;;;;;;;2.70;1.53;;;9.90;71.60;;;11.50;53.21;96652.06;4997998;28;20418;-59
2024/02/27 00:22:06;;;;;;;1.73;1.57;;;9.80;71.30;;;11.51;53.05;96661.69;5031643;28;20056;-59
2024/02/27 00:24:33;;;;;;;3.07;2.00;;;9.80;71.50;;;11.52;53.23;96668.69;5031457;28;20052;-59
2024/02/27 00:27:01;;;;;;;2.80;1.70;;;9.80;72.70;;;11.49;53.58;96674.38;5031455;28;20081;-59
2024/02/27 00:29:31;;;;;;;3.80;1.40;;;9.70;73.10;;;11.49;53.37;96670.91;5031298;28;20042;-59
2024/02/27 00:31:59;;;;;;;2.77;1.90;;;9.70;73.00;;;11.48;53.55;96675.41;5031459;28;20494;-59
2024/02/27 00:34:27;;;;;;;3.53;1.60;;;9.70;74.00;;;11.47;53.76;96684.41;5030913;28;20048;-59
2024/02/27 00:36:54;;;;;;;3.23;2.00;;;9.70;73.60;;;11.45;53.93;96689.09;5031431;28;20045;-59
2024/02/27 00:39:22;;;;;;;2.90;1.93;;;9.70;73.50;;;11.43;53.74;96694.63;5012796;28;20050;-60
2024/02/27 00:41:51;;;;;;;4.23;2.43;;;9.70;73.20;;;11.42;54.08;96695.66;4996070;28;20513;-59
2024/02/27 00:44:20;;;;;;;4.30;2.90;;;9.70;73.80;;;11.42;54.22;96695.66;5031523;28;20041;-60
2024/02/27 00:46:48;;;;;;;4.17;2.73;;;9.70;73.90;;;11.38;54.39;96705.03;5031235;28;20075;-59
2024/02/27 00:49:16;;;;;;;6.20;4.00;;;9.70;74.10;;;11.36;53.85;96704.41;5030556;28;20044;-59
2024/02/27 00:51:44;;;;;;;5.80;3.50;;;9.60;74.10;;;11.31;54.15;96713.97;5031185;28;20054;-59
2024/02/27 00:54:11;;;;;;;4.43;3.70;;;9.60;73.60;;;11.30;53.98;96720.31;5031044;28;20041;-59
2024/02/27 00:56:39;;;;;;;4.53;3.33;;;9.60;73.40;;;11.27;54.10;96724.19;5031119;28;20037;-59
2024/02/27 00:59:07;;;;;;;6.77;3.90;;;9.50;73.30;;;11.19;54.17;96730.44;5012971;28;20050;-60
2024/02/27 01:01:34;;;;;;;6.13;3.63;;;9.60;72.90;;;11.19;54.05;96724.31;5012299;28;20045;-60
2024/02/27 01:04:03;;;;;;;5.83;4.43;;;9.50;73.30;;;11.22;54.04;96724.75;5013347;28;20053;-60
2024/02/27 01:06:30;;;;;;;7.50;4.60;;;9.50;73.10;;;11.16;53.54;96717.50;5031023;28;20064;-60
2024/02/27 01:08:58;;;;;;;6.93;4.30;;;9.60;72.20;;;11.10;53.87;96722.75;5030472;28;20090;-60
2024/02/27 01:11:26;;;;;;;6.37;4.23;;;9.50;72.60;;;11.10;54.37;96718.25;5012670;28;20042;-60
2024/02/27 01:13:53;;;;;;;6.07;4.23;;;9.50;73.10;;;11.03;54.25;96712.00;5030968;28;20060;-59
2024/02/27 01:16:23;;;;;;;6.87;4.67;;;9.30;73.60;;;11.00;54.17;96718.53;5030945;28;20033;-59
2024/02/27 01:18:50;;;;;;;5.93;4.93;;;9.20;74.10;;;10.97;54.40;96718.06;5030538;28;20052;-59
2024/02/27 01:21:18;;;;;;;7.17;4.73;;;9.20;73.70;;;10.89;54.04;96729.66;5022933;28;20184;-60
2024/02/27 01:23:46;;;;;;;5.97;4.77;;;9.10;73.40;;;10.81;54.38;96730.59;5030568;28;20045;-60
2024/02/27 01:26:13;;;;;;;7.77;5.57;;;9.10;73.30;;;10.81;54.46;96738.56;5030625;28;20038;-59
2024/02/27 01:28:41;;;;;;;8.53;5.67;;;9.10;73.50;;;10.86;54.51;96737.19;5029564;28;20046;-60
2024/02/27 01:31:09;;;;;;;5.80;4.60;;;9.20;73.20;;;10.89;54.40;96731.50;5030659;28;20045;-60
2024/02/27 01:33:36;;;;;;;8.77;5.30;;;9.20;73.30;;;10.91;54.29;96734.81;5030739;28;20045;-60
2024/02/27 01:36:05;;;;;;;6.77;5.20;;;9.20;73.80;;;10.93;54.33;96725.59;5030354;28;20065;-59
2024/02/27 01:38:32;;;;;;;9.30;5.47;;;9.20;74.00;;;10.95;54.14;96726.28;5030294;28;20045;-59
2024/02/27 01:41:00;;;;;;;8.67;5.37;;;9.20;74.10;;;10.95;54.30;96726.28;5030580;28;20101;-59
2024/02/27 01:43:28;;;;;;;7.73;5.37;;;9.20;73.70;;;10.96;54.19;96725.25;5030000;28;20517;-59
2024/02/27 01:46:18;;;;;;;6.40;5.10;;;9.30;74.10;;;10.96;54.63;96727.91;5030400;28;20049;-59
2024/02/27 01:48:46;;;;;;;8.67;6.00;;;9.30;74.40;;;10.97;54.13;96720.75;5012604;28;20236;-59
2024/02/27 01:51:15;;;;;;;9.87;5.40;;;9.20;74.40;;;10.96;54.16;96719.94;5012992;28;20050;-59
2024/02/27 01:53:53;;;;;;;8.20;5.23;;;9.20;75.60;;;10.95;54.56;96715.63;5030478;28;20414;-59
2024/02/27 01:56:23;;;;;;;8.27;5.07;;;9.20;74.50;;;10.95;54.67;96714.78;5030446;28;20041;-59
2024/02/27 01:58:51;;;;;;;9.10;5.90;;;9.20;74.40;;;10.91;54.24;96719.66;5027548;28;20045;-59
2024/02/27 02:01:20;;;;;;;7.77;5.50;;;9.30;74.10;;;10.86;54.64;96721.22;5012721;28;20038;-59
2024/02/27 02:03:50;;;;;;;8.67;5.47;;;9.30;73.60;;;10.86;54.34;96724.72;5012917;28;20525;-59
2024/02/27 02:06:19;;;;;;;6.93;4.97;;;9.20;73.50;;;10.79;54.48;96705.16;5012492;28;20051;-58
2024/02/27 02:08:47;;;;;;;6.67;4.53;;;9.10;73.20;;;10.78;54.24;96714.19;5029737;28;20056;-59
2024/02/27 02:11:15;;;;;;;8.87;6.10;;;9.10;73.60;;;10.77;54.48;96718.66;5031622;28;20056;-59
2024/02/27 02:13:42;;;;;;;7.80;5.77;;;9.10;73.30;;;10.68;54.57;96717.09;5034212;28;20136;-58
2024/02/27 02:16:10;;;;;;;9.73;6.77;;;8.90;73.30;;;10.63;54.14;96711.53;5034034;28;20041;-58
2024/02/27 02:18:38;;;;;;;8.30;5.53;;;8.90;73.10;;;10.58;54.24;96721.88;5033483;28;20037;-58
2024/02/27 02:21:05;;;;;;;9.40;5.87;;;8.80;73.00;;;10.54;54.28;96720.59;5033565;28;20045;-59
2024/02/27 02:23:33;;;;;;;11.77;7.40;;;8.70;74.00;;;10.54;54.29;96725.91;5034039;28;20300;-59
2024/02/27 02:26:02;;;;;;;19.27;10.83;;;8.70;74.00;;;10.48;54.25;96729.31;5024493;28;20060;-59
2024/02/27 02:28:29;;;;;;;17.73;10.20;;;8.60;73.40;;;10.43;54.47;96729.88;5033222;28;20422;-59
2024/02/27 02:30:57;;;;;;;25.33;13.80;;;8.60;74.20;;;10.39;54.20;96739.22;5040031;28;20057;-59
2024/02/27 02:33:27;;;;;;;17.37;11.00;;;8.60;73.50;;;10.39;54.31;96737.41;5025775;28;20511;-59
2024/02/27 02:35:55;;;;;;;29.03;15.80;;;8.60;73.10;;;10.41;54.11;96742.50;5033471;28;20426;-59
2024/02/27 02:38:22;;;;;;;22.97;13.97;;;8.70;72.90;;;10.40;54.37;96746.19;5033173;28;20498;-59
2024/02/27 02:40:51;;;;;;;39.03;21.40;;;8.70;72.20;;;10.39;54.24;96750.69;5033518;28;20403;-59
2024/02/27 02:43:19;;;;;;;50.97;26.60;;;8.70;72.80;;;10.43;54.13;96753.81;5033426;28;20046;-59
2024/02/27 02:45:46;;;;;;;44.23;22.80;;;8.80;71.70;;;10.47;53.88;96756.94;5015906;28;20061;-59
2024/02/27 02:48:14;;;;;;;26.50;15.23;;;8.90;72.00;;;10.49;54.18;96755.75;5033266;28;20061;-59
2024/02/27 02:50:42;;;;;;;22.57;14.07;;;8.80;72.20;;;10.53;54.06;96758.88;5033179;28;20395;-59
2024/02/27 02:53:09;;;;;;;24.83;15.97;;;8.80;72.60;;;10.57;53.81;96762.81;5015790;28;20041;-59
2024/02/27 02:55:42;;;;;;;25.80;18.33;;;8.80;72.60;;;10.58;54.13;96761.81;5015825;28;20053;-59
2024/02/27 02:58:09;;;;;;;18.33;13.20;;;8.80;72.70;;;10.60;53.98;96757.13;5032632;28;20056;-59
2024/02/27 03:00:37;;;;;;;17.60;11.93;;;8.80;73.00;;;10.59;53.81;96758.97;5032465;28;20049;-59
2024/02/27 03:03:05;;;;;;;16.90;12.57;;;8.80;72.70;;;10.61;53.73;96767.59;5033128;28;20060;-58
2024/02/27 03:05:33;;;;;;;15.73;11.27;;;8.80;72.50;;;10.59;53.92;96771.44;5033127;28;20045;-58
2024/02/27 03:08:00;;;;;;;13.57;8.80;;;8.80;72.40;;;10.59;53.57;96774.94;5032706;28;20057;-59
2024/02/27 03:10:28;;;;;;;11.90;8.50;;;8.80;72.30;;;10.57;53.59;96776.13;5024980;28;20048;-59
2024/02/27 03:12:55;;;;;;;13.30;7.80;;;8.70;72.50;;;10.55;53.93;96780.81;5015369;28;20041;-59
2024/02/27 03:15:23;;;;;;;11.27;7.40;;;8.70;72.50;;;10.56;53.92;96790.44;5032912;28;20045;-59
2024/02/27 03:17:51;;;;;;;12.30;8.03;;;8.70;72.70;;;10.57;53.46;96790.25;5032501;28;20046;-59
2024/02/27 03:20:19;;;;;;;11.87;7.57;;;8.70;72.50;;;10.58;53.26;96788.41;5033072;28;20046;-59
2024/02/27 03:22:46;;;;;;;10.53;7.50;;;8.70;72.00;;;10.58;53.23;96802.53;5032805;28;20050;-59
2024/02/27 03:25:14;;;;;;;10.27;6.73;;;8.80;71.20;;;10.57;53.29;96800.09;5032576;28;20045;-59
2024/02/27 03:27:41;;;;;;;11.23;6.87;;;8.80;71.10;;;10.54;53.25;96805.75;5032381;28;20422;-59
2024/02/27 03:30:11;;;;;;;11.97;6.90;;;8.80;70.60;;;10.54;53.29;96814.56;5014999;28;20445;-59
2024/02/27 03:32:39;;;;;;;16.13;7.33;;;8.80;70.40;;;10.54;53.44;96811.09;5032590;28;20478;-59
2024/02/27 03:35:09;;;;;;;10.40;6.93;;;8.70;71.00;;;10.53;53.00;96809.44;5032384;28;20525;-60
2024/02/27 03:37:37;;;;;;;12.33;8.07;;;8.70;70.40;;;10.50;53.17;96812.47;5032180;28;20063;-60
2024/02/27 03:40:07;;;;;;;10.77;6.33;;;8.70;70.50;;;10.48;53.26;96817.94;5032366;28;20052;-60
2024/02/27 03:42:35;;;;;;;11.67;6.80;;;8.70;70.90;;;10.45;53.33;96813.00;5014605;28;20045;-59
2024/02/27 03:45:05;;;;;;;8.77;5.87;;;8.60;71.00;;;10.41;53.54;96817.88;5032319;28;20053;-59
2024/02/27 03:47:32;;;;;;;10.20;6.07;;;8.50;71.70;;;10.40;53.44;96818.03;5014487;28;20041;-59
2024/02/27 03:50:00;;;;;;;11.77;6.90;;;8.50;72.10;;;10.36;53.48;96822.06;5032272;28;20049;-59
2024/02/27 03:52:28;;;;;;;13.73;8.47;;;8.50;72.30;;;10.35;53.25;96831.88;5031239;28;20049;-60
2024/02/27 03:54:55;;;;;;;11.60;7.20;;;8.50;72.50;;;10.32;53.46;96829.56;5032230;28;20518;-59
2024/02/27 03:57:23;;;;;;;8.17;6.00;;;8.40;72.70;;;10.27;53.87;96831.91;5031746;28;20072;-59
2024/02/27 03:59:51;;;;;;;9.83;6.27;;;8.40;73.10;;;10.25;53.98;96831.25;5032055;28;20045;-60
2024/02/27 04:02:18;;;;;;;8.27;6.40;;;8.30;73.40;;;10.25;54.10;96829.44;5031902;28;20052;-59
2024/02/27 04:04:46;;;;;;;8.30;6.07;;;8.30;73.70;;;10.23;53.76;96834.09;5031985;28;20049;-60
2024/02/27 04:07:14;;;;;;;9.20;7.23;;;8.40;73.60;;;10.27;53.93;96834.56;5031307;28;20050;-59
2024/02/27 04:09:42;;;;;;;11.20;7.30;;;8.40;73.70;;;10.28;53.82;96832.75;5031796;28;20052;-59
2024/02/27 04:12:10;;;;;;;10.57;6.80;;;8.50;73.40;;;10.29;54.18;96821.09;5031692;28;20075;-59
2024/02/27 04:14:37;;;;;;;11.40;7.33;;;8.50;73.30;;;10.25;53.86;96832.09;5031806;28;20473;-59
2024/02/27 04:17:05;;;;;;;12.57;8.17;;;8.40;73.10;;;10.14;53.95;96832.53;5031554;28;20041;-59
2024/02/27 04:19:32;;;;;;;14.20;7.50;;;8.30;73.90;;;10.11;54.53;96840.03;5031320;28;20033;-59
2024/02/27 04:22:00;;;;;;;13.53;8.23;;;8.20;74.50;;;10.11;54.25;96851.47;5014047;28;20407;-60
2024/02/27 04:24:28;;;;;;;12.53;8.37;;;8.30;74.70;;;10.12;54.36;96855.81;5031579;28;20456;-59
2024/02/27 04:26:56;;;;;;;11.00;7.30;;;8.30;74.60;;;10.14;54.30;96850.28;5031567;28;20045;-59
2024/02/27 04:29:24;;;;;;;12.87;8.77;;;8.30;74.20;;;10.15;54.65;96852.78;5031140;28;20046;-59
2024/02/27 04:31:51;;;;;;;10.40;7.77;;;8.30;74.50;;;10.15;54.61;96849.31;5031223;28;20052;-60
2024/02/27 04:34:19;;;;;;;15.57;9.03;;;8.30;74.70;;;10.17;54.06;96856.09;5031334;28;20053;-60
2024/02/27 04:36:47;;;;;;;12.57;8.83;;;8.30;74.60;;;10.18;54.77;96855.09;5031429;28;20045;-59
2024/02/27 04:39:15;;;;;;;13.77;8.80;;;8.40;74.60;;;10.14;54.63;96864.44;5030826;28;20049;-60
2024/02/27 04:41:43;;;;;;;13.90;8.93;;;8.30;74.80;;;10.09;54.91;96861.47;5031088;28;20053;-59
2024/02/27 04:44:14;;;;;;;12.43;8.90;;;8.20;75.40;;;10.03;54.82;96865.66;5031226;28;20060;-59
2024/02/27 04:46:41;;;;;;;15.13;9.83;;;8.20;75.90;;;10.02;54.72;96874.66;5013076;28;20061;-60
2024/02/27 04:49:09;;;;;;;17.13;10.20;;;8.20;76.00;;;10.02;55.00;96877.31;5030921;28;20057;-60
2024/02/27 04:51:37;;;;;;;17.53;9.63;;;8.20;76.00;;;10.05;54.79;96873.47;5013169;28;20041;-60
2024/02/27 04:54:05;;;;;;;15.47;10.27;;;8.20;75.70;;;10.05;54.98;96873.47;5031355;28;20503;-60
2024/02/27 04:56:32;;;;;;;17.20;10.53;;;8.30;75.80;;;10.02;55.14;96873.81;5030976;28;20400;-60
2024/02/27 04:59:00;;;;;;;19.23;11.33;;;8.20;76.00;;;10.00;54.98;96879.34;5027510;28;20072;-60
2024/02/27 05:01:29;;;;;;;16.97;10.50;;;8.20;76.40;;;9.92;55.72;96882.03;5030244;28;20068;-60
2024/02/27 05:03:57;;;;;;;19.70;12.50;;;8.10;77.20;;;9.84;55.89;96888.22;5031056;28;20052;-58
2024/02/27 05:06:24;;;;;;;14.30;9.53;;;8.00;77.50;;;9.85;55.72;96894.38;5013350;28;20049;-59
2024/02/27 05:08:52;;;;;;;15.97;10.70;;;8.00;77.80;;;9.84;55.94;96903.34;5030725;28;20064;-59
2024/02/27 05:11:20;;;;;;;17.47;10.87;;;8.00;77.60;;;9.82;56.00;96905.34;5030600;28;20042;-58
2024/02/27 05:13:48;;;;;;;16.10;10.77;;;8.00;77.70;;;9.74;56.13;96908.88;5030807;28;20042;-59
2024/02/27 05:16:16;;;;;;;16.70;11.07;;;7.90;77.90;;;9.78;56.11;96904.03;5030617;28;20042;-58
2024/02/27 05:18:43;;;;;;;19.13;11.73;;;8.00;77.50;;;9.77;56.26;96908.53;5030442;28;20038;-60
2024/02/27 05:21:12;;;;;;;15.23;11.17;;;8.00;77.70;;;9.79;56.02;96919.81;5030450;28;20050;-60
2024/02/27 05:23:39;;;;;;;17.30;10.33;;;8.00;77.60;;;9.82;55.79;96913.31;5022820;28;20044;-59
2024/02/27 05:26:07;;;;;;;16.97;11.33;;;8.10;77.40;;;9.80;55.92;96915.34;5030809;28;20411;-60
2024/02/27 05:28:36;;;;;;;20.50;12.97;;;8.00;77.20;;;9.73;56.13;96917.00;5030400;28;20054;-60
2024/02/27 05:31:24;;;;;;;22.80;14.97;;;8.00;77.30;;;9.76;56.07;96927.31;5030361;28;20056;-60
2024/02/27 05:33:59;;;;;;;22.27;13.67;;;8.10;77.10;;;9.79;56.22;96929.59;5024037;28;20049;-59
2024/02/27 05:36:28;;;;;;;17.30;12.27;;;8.10;76.60;;;9.79;56.20;96937.59;5012370;28;20057;-60
2024/02/27 05:38:56;;;;;;;19.17;13.07;;;8.10;76.60;;;9.72;56.00;96936.66;5012712;28;20092;-60
2024/02/27 05:41:24;;;;;;;20.57;12.93;;;8.10;76.20;;;9.70;56.06;96936.81;5030772;28;20045;-60
2024/02/27 05:43:52;;;;;;;19.13;12.17;;;8.10;76.40;;;9.64;56.18;96932.19;5030656;28;20045;-60
2024/02/27 05:46:20;;;;;;;21.27;12.63;;;8.00;76.80;;;9.63;56.26;96933.19;5032062;28;20049;-60
2024/02/27 05:48:47;;;;;;;18.20;11.90;;;8.10;76.40;;;9.62;56.48;96942.16;5034291;28;20045;-59
2024/02/27 05:51:15;;;;;;;17.67;12.17;;;8.10;76.20;;;9.58;56.32;96944.34;5034084;28;20045;-60
2024/02/27 05:53:43;;;;;;;17.57;11.43;;;8.00;76.40;;;9.60;56.55;96942.34;5026862;28;20060;-60
2024/02/27 05:56:11;;;;;;;17.57;12.77;;;8.10;76.00;;;9.62;56.53;96948.31;5034592;28;20491;-60
2024/02/27 05:58:39;;;;;;;23.80;13.80;;;8.10;75.70;;;9.68;56.37;96954.75;5033953;28;20064;-60
2024/02/27 06:01:07;;;;;;;20.07;12.83;;;8.20;75.60;;;9.69;56.15;96955.56;5034407;28;20038;-60
2024/02/27 06:03:35;;;;;;;20.27;11.70;;;8.10;75.50;;;9.65;56.25;96960.41;5016484;28;20052;-60
2024/02/27 06:06:03;;;;;;;19.17;11.90;;;8.20;75.40;;;9.66;56.26;96970.88;5034205;28;20490;-59
2024/02/27 06:08:31;;;;;;;22.30;13.57;;;8.10;75.70;;;9.69;56.23;96968.88;5033602;28;20049;-60
2024/02/27 06:10:58;;;;;;;16.97;11.03;;;8.10;75.50;;;9.73;56.11;96976.34;5034347;28;20038;-59
2024/02/27 06:13:26;;;;;;;20.20;13.00;;;8.20;75.20;;;9.74;56.21;96971.84;5032862;28;20048;-59
2024/02/27 06:15:57;;;;;;;19.50;13.00;;;8.20;75.00;;;9.73;56.05;96973.69;5034219;28;20044;-59
2024/02/27 06:18:25;;;;;;;17.27;12.47;;;8.20;75.30;;;9.75;55.90;96977.00;5033261;28;20041;-60
2024/02/27 06:23:40;;;;;;;21.63;12.87;;;8.10;75.70;;;9.76;56.09;96977.81;5019105;28;20071;-59
2024/02/27 06:26:09;;;;;;;25.17;15.07;;;8.10;75.50;;;9.78;55.88;96986.44;5034017;28;20049;-59
2024/02/27 06:28:36;;;;;;;22.30;15.10;;;8.10;75.50;;;9.77;55.97;96992.75;5033439;28;20045;-59
2024/02/27 06:31:04;;;;;;;21.20;14.10;;;8.10;75.40;;;9.78;55.77;97000.56;5033554;28;20064;-59
2024/02/27 06:33:32;;;;;;;24.60;14.53;;;8.10;75.60;;;9.76;55.97;97009.72;5033551;28;20045;-60
2024/02/27 06:35:59;;;;;;;20.97;13.27;;;8.00;75.50;;;9.70;55.66;97005.91;5033718;28;20041;-59
2024/02/27 06:38:27;;;;;;;22.40;14.40;;;8.00;75.90;;;9.68;55.92;97002.59;5015073;28;20049;-60
2024/02/27 06:40:55;;;;;;;20.23;14.23;;;8.00;75.90;;;9.65;55.81;97003.78;5033766;28;20056;-59
2024/02/27 06:43:22;;;;;;;19.93;13.27;;;7.90;76.30;;;9.64;56.03;97009.25;5033573;28;20060;-60
2024/02/27 06:45:52;;;;;;;21.30;12.77;;;7.90;76.00;;;9.64;55.98;97002.09;5033520;28;20045;-60
2024/02/27 06:48:20;;;;;;;21.07;12.10;;;7.90;77.10;;;9.63;56.17;97013.75;5032821;28;20049;-59
2024/02/27 06:50:51;;;;;;;22.23;13.10;;;7.90;75.80;;;9.63;55.79;97011.09;5024268;28;20045;-59
2024/02/27 06:53:19;;;;;;;20.20;14.10;;;7.90;76.30;;;9.63;56.14;97007.59;5032330;28;20542;-59
2024/02/27 06:55:48;;;;;;;19.90;14.17;;;7.90;76.30;;;9.62;56.17;97008.59;5032287;28;20048;-60
2024/02/27 06:58:16;;;;;;;20.80;13.57;;;8.00;76.10;;;9.59;55.95;97011.59;5031236;28;20045;-60
2024/02/27 07:00:44;;;;;;;20.77;13.17;;;8.00;75.70;;;9.48;56.30;97012.78;5031612;28;20041;-59
2024/02/27 07:03:12;;;;;;;19.53;12.63;;;7.90;75.50;;;9.49;55.96;97013.63;5031738;28;20486;-59
2024/02/27 07:05:40;;;;;;;22.63;14.87;;;7.80;75.60;;;9.45;56.09;97016.59;5032165;28;20502;-59
2024/02/27 07:08:20;;;;;;;19.43;13.00;;;7.90;75.60;;;9.44;56.32;97009.66;5031745;28;20045;-60
2024/02/27 07:10:48;;;;;;;22.10;13.77;;;7.90;75.40;;;9.43;55.81;97005.31;5031950;28;20041;-60
2024/02/27 07:13:16;;;;;;;19.63;13.50;;;7.90;75.40;;;9.43;56.02;97004.50;5032029;28;20045;-51
2024/02/27 07:15:44;;;;;;;19.50;12.30;;;7.90;75.30;;;9.43;56.32;97012.47;5013892;28;20057;-49
2024/02/27 07:18:15;;;;;;;18.20;13.60;;;7.90;75.30;;;9.44;56.02;97017.63;5031065;28;20045;-49
2024/02/27 07:20:43;;;;;;;16.63;11.27;;;8.00;74.80;;;9.45;56.02;97029.88;5014916;28;20049;-48
2024/02/27 07:23:13;;;;;;;20.27;12.43;;;8.00;74.30;;;9.47;56.04;97024.41;5031957;28;20049;-52
2024/02/27 07:25:40;;;;;;;20.70;12.50;;;8.00;74.50;;;9.50;56.07;97039.19;5031685;28;20056;-47
2024/02/27 07:28:08;;;;;;;23.03;13.07;;;8.00;74.40;;;9.52;56.07;97037.19;5031398;28;20041;-49
2024/02/27 07:30:48;;;;;;;21.73;12.20;;;8.00;74.20;;;9.57;56.01;97040.16;5031882;28;20041;-48
2024/02/27 07:33:16;;;;;;;15.07;11.60;;;8.10;74.10;;;9.58;56.09;97041.84;5031419;28;20041;-50
2024/02/27 07:35:44;;;;;;;18.53;10.60;;;8.10;73.80;;;9.63;56.00;97050.13;5031793;28;20041;-50
2024/02/27 07:38:11;;;;;;;22.10;13.37;;;8.20;73.70;;;9.69;56.08;97046.78;5031183;28;20418;-48
2024/02/27 07:40:39;;;;;;;19.50;12.33;;;8.30;73.60;;;9.74;55.74;97054.25;5013556;28;20518;-46
2024/02/27 07:43:07;;;;;;;20.43;12.00;;;8.30;73.30;;;9.80;55.88;97056.22;5031678;28;20495;-48
2024/02/27 07:45:35;;;;;;;17.97;12.63;;;8.30;73.30;;;9.83;55.78;97062.03;5031436;28;20060;-48
2024/02/27 07:48:04;;;;;;;21.55;13.80;;;8.40;73.40;;;9.84;55.66;97055.69;4995094;28;1036647;-51
2024/02/27 07:50:33;;;;;;;21.77;12.37;;;8.40;72.80;;;9.81;55.93;97050.75;5032065;28;20056;-48
2024/02/27 07:53:00;;;;;;;22.47;14.10;;;8.40;73.10;;;9.77;55.73;97048.56;5032377;28;20029;-49
2024/02/27 07:55:28;;;;;;;21.77;11.73;;;8.40;72.60;;;9.75;55.97;97050.56;5014740;28;20041;-51
2024/02/27 07:57:56;;;;;;;16.60;12.00;;;8.40;73.30;;;9.83;55.42;97051.41;5031805;28;20041;-47
2024/02/27 08:00:24;;;;;;;18.40;12.20;;;8.30;73.50;;;9.85;55.75;97061.88;5026255;28;20049;-48
2024/02/27 08:02:51;;;;;;;18.60;12.10;;;8.40;73.00;;;9.89;55.95;97070.31;5026118;28;20049;-49
2024/02/27 08:05:22;;;;;;;21.13;11.77;;;8.40;73.30;;;9.89;55.72;97071.16;5032124;28;20041;-49
2024/02/27 08:07:49;;;;;;;21.10;12.97;;;8.50;73.00;;;9.86;55.99;97074.16;5031362;28;20426;-51
2024/02/27 08:10:17;;;;;;;19.23;12.27;;;8.50;73.10;;;9.95;55.98;97075.78;4997592;28;20041;-49
2024/02/27 08:12:45;;;;;;;20.33;11.87;;;8.50;73.30;;;9.99;55.80;97085.06;5031667;28;20049;-47
2024/02/27 08:15:12;;;;;;;23.83;12.80;;;8.50;73.00;;;9.99;55.76;97082.41;5013949;28;20053;-47
2024/02/27 08:17:40;;;;;;;18.77;13.03;;;8.50;73.40;;;10.02;55.72;97084.75;5031544;28;20042;-46
2024/02/27 08:20:09;;;;;;;22.50;13.00;;;8.50;74.50;;;10.07;55.53;97092.19;5031842;28;20044;-46
2024/02/27 08:22:36;;;;;;;18.53;13.93;;;8.60;73.40;;;10.10;55.50;97101.66;5031619;28;20049;-45
2024/02/27 08:25:05;;;;;;;20.43;12.70;;;8.70;73.30;;;10.12;55.58;97105.81;5031442;28;20045;-49
2024/02/27 08:27:34;;;;;;;18.73;13.00;;;8.70;72.90;;;10.12;55.72;97107.63;5031299;28;20045;-46
2024/02/27 08:30:04;;;;;;;18.33;13.43;;;8.80;72.60;;;10.10;55.67;97112.28;5031674;28;20053;-46
2024/02/27 08:32:32;;;;;;;19.20;13.17;;;8.80;72.10;;;10.13;55.66;97098.66;5031345;28;20049;-46
2024/02/27 08:34:59;;;;;;;20.73;13.80;;;8.80;72.40;;;10.13;55.78;97099.50;5031777;28;20049;-47
2024/02/27 08:37:29;;;;;;;21.33;14.13;;;8.80;72.20;;;10.13;55.70;97102.16;5031256;28;20060;-48
2024/02/27 08:39:58;;;;;;;20.50;13.97;;;8.80;72.50;;;10.21;55.31;97104.78;5031230;28;20049;-47
2024/02/27 08:42:26;;;;;;;22.20;14.40;;;8.70;72.50;;;10.19;55.04;97101.47;5031649;28;20208;-48
2024/02/27 08:44:54;;;;;;;19.37;13.20;;;8.70;72.50;;;10.24;55.37;97106.28;5031295;28;20422;-50
2024/02/27 08:47:22;;;;;;;19.37;12.87;;;8.80;72.50;;;10.31;55.38;97093.97;5031037;28;20045;-47
2024/02/27 08:49:50;;;;;;;25.03;14.17;;;8.80;72.70;;;10.34;54.95;97098.13;5031252;28;20053;-49
2024/02/27 08:52:18;;;;;;;20.93;14.37;;;8.90;72.00;;;10.36;54.88;97099.59;5013221;28;20046;-51
2024/02/27 08:54:45;;;;;;;22.27;12.77;;;8.90;72.20;;;10.33;54.86;97091.97;5029422;28;20052;-50
2024/02/27 08:57:13;;;;;;;21.33;14.80;;;8.90;72.30;;;10.34;54.95;97093.63;5031165;28;20037;-50
2024/02/27 08:59:43;;;;;;;22.13;14.23;;;8.90;72.40;;;10.27;55.19;97091.78;5030929;28;20038;-50
2024/02/27 09:02:11;;;;;;;23.27;13.53;;;8.70;72.90;;;10.32;55.15;97084.16;5031034;28;20044;-50
2024/02/27 09:04:39;;;;;;;24.00;13.80;;;8.70;73.20;;;10.32;54.95;97090.31;5029787;28;20045;-48
2024/02/27 09:07:08;;;;;;;20.20;12.40;;;8.70;73.00;;;10.30;54.99;97089.66;5030520;28;20041;-52
2024/02/27 09:09:35;;;;;;;23.87;14.43;;;8.70;72.80;;;10.34;55.33;97096.28;5030859;28;20053;-49
2024/02/27 09:12:05;;;;;;;27.60;16.07;;;8.80;72.60;;;10.43;55.62;97097.91;5031017;28;20513;-50
2024/02/27 09:14:33;;;;;;;24.03;15.23;;;8.90;73.10;;;10.46;54.85;97102.06;5030270;28;20517;-47
2024/02/27 09:17:00;;;;;;;23.60;14.37;;;9.00;72.50;;;10.44;54.96;97112.03;5037669;28;20045;-50
2024/02/27 09:19:29;;;;;;;19.13;13.63;;;9.00;72.20;;;10.49;55.15;97119.50;5030486;28;20046;-51
2024/02/27 09:21:57;;;;;;;23.50;14.00;;;9.10;72.10;;;10.57;55.43;97120.31;5030991;28;20457;-48
2024/02/27 09:24:24;;;;;;;21.27;14.47;;;9.20;72.10;;;10.64;55.02;97107.97;5030657;28;20041;-50
2024/02/27 09:26:52;;;;;;;21.90;13.27;;;9.30;71.70;;;10.70;54.78;97116.22;5030772;28;20060;-47
2024/02/27 09:29:20;;;;;;;21.73;13.50;;;9.30;71.30;;;10.68;54.53;97119.06;5030390;28;20051;-48
2024/02/27 09:31:48;;;;;;;26.57;14.27;;;9.30;72.10;;;10.67;54.93;97113.94;5030861;28;20050;-49
2024/02/27 09:34:15;;;;;;;20.73;14.77;;;9.30;71.50;;;10.70;54.53;97110.91;5013322;28;20041;-51
2024/02/27 09:36:43;;;;;;;22.20;14.40;;;9.30;71.50;;;10.71;54.71;97110.75;5031123;28;20078;-47
2024/02/27 09:39:11;;;;;;;22.43;14.57;;;9.30;71.60;;;10.77;55.03;97110.03;5030170;28;20391;-48
2024/02/27 09:42:09;;;;;;;22.17;15.23;;;9.40;71.40;;;10.76;54.60;97113.72;5030648;28;20045;-48
2024/02/27 09:44:42;;;;;;;25.17;15.30;;;9.30;71.00;;;10.73;54.62;97106.06;5030261;28;20050;-50
2024/02/27 09:47:13;;;;;;;25.97;15.63;;;9.20;71.60;;;10.78;54.53;97101.06;5023543;28;20045;-49
2024/02/27 09:49:42;;;;;;;22.40;15.03;;;9.30;71.40;;;10.88;54.53;97106.16;5013008;28;20041;-49
2024/02/27 09:52:15;;;;;;;22.10;14.83;;;9.50;71.30;;;10.96;54.49;97106.09;5013397;28;20045;-48
2024/02/27 09:54:44;;;;;;;24.07;14.53;;;9.60;71.00;;;11.00;54.42;97104.72;5030596;28;20517;-49
2024/02/27 09:57:15;;;;;;;22.47;16.07;;;9.70;70.60;;;10.91;54.76;97116.44;5030602;28;20067;-49
2024/02/27 09:59:43;;;;;;;24.57;14.47;;;9.50;71.60;;;10.99;54.38;97113.75;5013151;28;20529;-51
2024/02/27 10:02:17;;;;;;;27.80;15.80;;;9.50;71.90;;;11.08;54.78;97111.84;5030348;28;20041;-48
2024/02/27 10:04:46;;;;;;;23.43;14.83;;;9.60;71.80;;;11.10;54.07;97117.81;4997278;28;20049;-51
2024/02/27 10:07:18;;;;;;;25.07;15.07;;;9.60;72.10;;;11.08;54.29;97116.34;5030468;28;20120;-48
2024/02/27 10:09:46;;;;;;;25.03;16.17;;;9.60;71.00;;;11.10;54.38;97124.97;5013267;28;20076;-49
2024/02/27 10:12:14;;;;;;;28.43;15.47;;;9.60;71.30;;;11.07;54.46;97120.84;5030382;28;20269;-48
2024/02/27 10:14:42;;;;;;;24.47;15.40;;;9.70;71.60;;;11.08;54.54;97121.66;5030336;28;20423;-49
2024/02/27 10:17:10;;;;;;;25.73;17.03;;;9.60;70.80;;;11.08;54.13;97121.66;5030147;28;20415;-48
2024/02/27 10:19:38;;;;;;;24.40;15.20;;;9.50;71.10;;;10.96;54.25;97116.75;5030028;28;20045;-48
2024/02/27 10:22:06;;;;;;;24.17;16.77;;;9.40;71.00;;;10.92;54.53;97120.78;5012935;28;20064;-51
2024/02/27 10:24:34;;;;;;;22.67;15.37;;;9.30;71.60;;;10.93;54.10;97126.91;5030254;28;20391;-49
2024/02/27 10:27:07;;;;;;;24.47;15.30;;;9.40;71.10;;;10.93;54.12;97118.94;5030373;28;20129;-49